createdAt,value
2023-03-25T00:00:39.647Z,71.46
2023-03-25T00:03:09.346Z,70.55
2023-03-25T00:05:39.614Z,70.52
2023-03-25T00:08:07.980Z,69.85
2023-03-25T00:10:35.601Z,69.63
2023-03-25T00:13:23.641Z,69.61
2023-03-25T00:15:58.443Z,69.75
2023-03-25T00:18:33.636Z,69.88
2023-03-25T00:21:02.446Z,70.80
2023-03-25T00:23:30.454Z,71.00
2023-03-25T00:26:01.087Z,71.56
2023-03-25T00:28:31.034Z,72.28
2023-03-25T00:31:09.337Z,72.75
2023-03-25T00:33:37.263Z,73.46
2023-03-25T00:36:05.608Z,73.70
2023-03-25T00:38:36.150Z,73.75
2023-03-25T00:41:13.364Z,73.77
2023-03-25T00:43:40.945Z,73.97
2023-03-25T00:46:08.521Z,74.19
2023-03-25T00:48:36.713Z,74.78
2023-03-25T00:51:10.230Z,75.20
2023-03-25T00:53:38.207Z,75.33
2023-03-25T00:56:05.478Z,75.55
2023-03-25T00:58:33.764Z,74.83
2023-03-25T01:01:01.912Z,74.67
2023-03-25T01:03:29.974Z,74.95
2023-03-25T01:05:58.055Z,74.58
2023-03-25T01:08:25.374Z,75.20
2023-03-25T01:10:54.477Z,75.17
2023-03-25T01:13:22.564Z,76.26
2023-03-25T01:15:50.469Z,76.59
2023-03-25T01:18:19.077Z,76.61
2023-03-25T01:20:47.273Z,77.00
2023-03-25T01:23:15.446Z,77.66
2023-03-25T01:25:42.557Z,77.91
2023-03-25T01:28:10.903Z,77.49
2023-03-25T01:30:38.578Z,77.99
2023-03-25T01:33:06.287Z,78.02
2023-03-25T01:35:34.417Z,78.23
2023-03-25T01:38:02.179Z,78.45
2023-03-25T01:40:30.560Z,78.06
2023-03-25T01:42:58.219Z,77.43
2023-03-25T01:45:28.556Z,77.18
2023-03-25T01:48:10.524Z,77.88
2023-03-25T01:50:39.115Z,77.91
2023-03-25T01:53:09.333Z,77.35
2023-03-25T01:55:36.507Z,77.53
2023-03-25T01:58:10.791Z,78.07
2023-03-25T02:00:42.159Z,78.24
2023-03-25T02:03:12.140Z,78.76
2023-03-25T02:05:43.415Z,79.10
2023-03-25T02:08:11.520Z,79.34
2023-03-25T02:10:39.713Z,79.58
2023-03-25T02:13:06.940Z,79.77
2023-03-25T02:16:00.492Z,79.63
2023-03-25T02:18:44.863Z,80.32
2023-03-25T02:21:39.277Z,80.49
2023-03-25T02:24:14.276Z,80.81
2023-03-25T02:27:27.419Z,81.19
2023-03-25T02:30:28.739Z,81.15
2023-03-25T02:33:26.631Z,81.43
2023-03-25T02:36:11.685Z,81.73
2023-03-25T02:38:56.033Z,81.96
2023-03-25T02:41:39.016Z,82.95
2023-03-25T02:44:30.343Z,83.07
2023-03-25T02:46:59.279Z,83.92
2023-03-25T02:49:30.424Z,83.83
2023-03-25T02:52:01.197Z,85.64
2023-03-25T02:54:28.726Z,86.51
2023-03-25T02:56:58.672Z,87.64
2023-03-25T02:59:25.779Z,88.09
2023-03-25T03:01:58.618Z,88.31
2023-03-25T03:04:26.277Z,88.50
2023-03-25T03:06:53.889Z,89.02
2023-03-25T03:09:27.522Z,89.10
2023-03-25T03:12:00.213Z,88.89
2023-03-25T03:14:41.502Z,88.64
2023-03-25T03:17:18.385Z,87.74
2023-03-25T03:19:58.042Z,87.68
2023-03-25T03:22:37.007Z,87.47
2023-03-25T03:25:12.459Z,87.66
2023-03-25T03:27:49.668Z,88.13
2023-03-25T03:30:27.273Z,87.61
2023-03-25T03:33:13.531Z,87.84
2023-03-25T03:35:57.388Z,87.56
2023-03-25T03:38:49.037Z,87.94
2023-03-25T03:41:40.927Z,88.98
2023-03-25T03:44:11.222Z,90.03
2023-03-25T03:46:41.928Z,90.59
2023-03-25T03:49:10.663Z,90.71
2023-03-25T03:51:41.675Z,91.07
2023-03-25T03:54:19.923Z,91.37
2023-03-25T03:57:11.044Z,90.90
2023-03-25T03:59:50.492Z,92.08
2023-03-25T04:02:35.039Z,91.98
2023-03-25T04:05:03.213Z,91.51
2023-03-25T04:07:39.087Z,91.38
2023-03-25T04:10:15.234Z,90.82
2023-03-25T04:12:45.562Z,90.06
2023-03-25T04:15:14.046Z,89.71
2023-03-25T04:17:43.126Z,89.32
2023-03-25T04:20:14.474Z,88.35
2023-03-25T04:22:45.849Z,88.45
2023-03-25T04:25:14.136Z,87.73
2023-03-25T04:27:45.770Z,87.35
2023-03-25T04:30:14.102Z,87.70
2023-03-25T04:32:42.505Z,87.64
2023-03-25T04:35:18.720Z,87.77
2023-03-25T04:37:47.179Z,87.42
2023-03-25T04:40:35.254Z,88.30
2023-03-25T04:43:02.918Z,88.00
2023-03-25T04:45:30.774Z,88.18
2023-03-25T04:47:58.906Z,87.80
2023-03-25T04:50:28.176Z,88.40
2023-03-25T04:52:57.574Z,89.08
2023-03-25T04:55:25.878Z,88.80
2023-03-25T04:57:54.894Z,89.15
2023-03-25T05:00:24.370Z,89.29
2023-03-25T05:02:54.174Z,89.49
2023-03-25T05:05:23.238Z,88.88
2023-03-25T05:07:54.717Z,89.57
2023-03-25T05:10:26.962Z,89.01
2023-03-25T05:13:05.562Z,89.27
2023-03-25T05:15:35.569Z,90.58
2023-03-25T05:18:03.720Z,91.59
2023-03-25T05:20:34.780Z,91.62
2023-03-25T05:23:12.415Z,91.61
2023-03-25T05:25:40.736Z,91.85
2023-03-25T05:28:09.997Z,93.03
2023-03-25T05:30:41.974Z,93.76
2023-03-25T05:33:10.641Z,93.11
2023-03-25T05:35:39.306Z,92.72
2023-03-25T05:38:09.984Z,92.14
2023-03-25T05:40:37.902Z,91.92
2023-03-25T05:43:06.683Z,91.65
2023-03-25T05:45:36.250Z,90.92
2023-03-25T05:48:04.399Z,90.49
2023-03-25T05:50:32.268Z,90.57
2023-03-25T05:53:00.096Z,90.30
2023-03-25T05:55:28.016Z,90.34
2023-03-25T05:57:57.542Z,91.08
2023-03-25T06:00:25.628Z,90.91
2023-03-25T06:02:53.473Z,90.77
2023-03-25T06:05:23.950Z,90.68
2023-03-25T06:07:51.181Z,89.86
2023-03-25T06:10:19.524Z,89.53
2023-03-25T06:12:47.387Z,88.93
2023-03-25T06:15:29.284Z,88.68
2023-03-25T06:17:57.785Z,88.32
2023-03-25T06:20:25.939Z,87.55
2023-03-25T06:22:54.470Z,87.22
2023-03-25T06:25:22.655Z,87.30
2023-03-25T06:27:50.759Z,87.54
2023-03-25T06:30:19.974Z,87.22
2023-03-25T06:32:51.150Z,86.96
2023-03-25T06:35:20.154Z,86.92
2023-03-25T06:37:48.986Z,86.78
2023-03-25T06:40:19.461Z,87.33
2023-03-25T06:42:47.098Z,88.19
2023-03-25T06:45:16.455Z,86.90
2023-03-25T06:47:44.328Z,86.10
2023-03-25T06:50:12.691Z,86.36
2023-03-25T06:52:39.872Z,85.73
2023-03-25T06:55:09.610Z,85.60
2023-03-25T06:57:37.968Z,85.51
2023-03-25T07:00:09.810Z,85.54
2023-03-25T07:02:38.041Z,84.96
2023-03-25T07:05:07.535Z,85.50
2023-03-25T07:07:35.259Z,84.54
2023-03-25T07:10:03.269Z,84.81
2023-03-25T07:12:30.906Z,84.95
2023-03-25T07:14:59.131Z,84.84
2023-03-25T07:17:26.459Z,84.62
2023-03-25T07:19:54.668Z,83.99
2023-03-25T07:22:22.739Z,83.89
2023-03-25T07:24:53.631Z,84.13
2023-03-25T07:27:21.282Z,83.69
2023-03-25T07:29:49.286Z,83.13
2023-03-25T07:32:17.688Z,82.72
2023-03-25T07:34:45.548Z,82.38
2023-03-25T07:37:13.932Z,83.00
2023-03-25T07:39:41.955Z,83.08
2023-03-25T07:42:09.944Z,81.66
2023-03-25T07:44:37.631Z,81.22
2023-03-25T07:47:05.739Z,81.31
2023-03-25T07:49:33.866Z,80.56
2023-03-25T07:52:02.345Z,80.23
2023-03-25T07:54:52.579Z,80.63
2023-03-25T07:57:19.518Z,79.76
2023-03-25T07:59:47.696Z,80.06
2023-03-25T08:02:15.727Z,77.98
2023-03-25T08:04:43.805Z,78.43
2023-03-25T08:07:12.109Z,77.39
2023-03-25T08:09:40.500Z,75.50
2023-03-25T08:12:09.610Z,76.69
2023-03-25T08:14:37.254Z,76.79
2023-03-25T08:17:07.026Z,76.47
2023-03-25T08:19:34.840Z,74.72
2023-03-25T08:22:02.361Z,74.51
2023-03-25T08:24:32.576Z,74.81
2023-03-25T08:27:13.865Z,73.79
2023-03-25T08:29:44.676Z,73.64
2023-03-25T08:32:12.736Z,73.18
2023-03-25T08:34:41.216Z,72.62
2023-03-25T08:37:10.119Z,71.44
2023-03-25T08:39:40.224Z,71.82
2023-03-25T08:42:09.277Z,71.65
2023-03-25T08:44:36.968Z,70.08
2023-03-25T08:47:05.909Z,71.07
2023-03-25T08:49:33.830Z,69.40
2023-03-25T08:52:04.486Z,69.25
2023-03-25T08:54:32.500Z,69.48
2023-03-25T08:57:00.896Z,69.46
2023-03-25T08:59:28.535Z,68.06
2023-03-25T09:01:57.739Z,66.92
2023-03-25T09:04:26.254Z,66.40
2023-03-25T09:07:12.073Z,66.18
2023-03-25T09:09:41.396Z,65.56
2023-03-25T09:12:08.912Z,66.18
2023-03-25T09:14:36.872Z,65.65
2023-03-25T09:17:06.156Z,65.03
2023-03-25T09:19:35.416Z,65.19
2023-03-25T09:22:03.621Z,65.07
2023-03-25T09:24:34.441Z,65.10
2023-03-25T09:27:02.220Z,63.02
2023-03-25T09:29:30.391Z,61.65
2023-03-25T09:31:59.660Z,61.92
2023-03-25T09:34:27.331Z,62.39
2023-03-25T09:36:55.289Z,63.43
2023-03-25T09:39:23.793Z,61.42
2023-03-25T09:41:51.002Z,60.94
2023-03-25T09:44:34.875Z,59.66
2023-03-25T09:47:02.835Z,59.63
2023-03-25T09:49:53.695Z,59.24
2023-03-25T09:52:23.720Z,56.51
2023-03-25T09:54:55.519Z,56.83
2023-03-25T09:57:23.798Z,56.71
2023-03-25T09:59:51.498Z,56.58
2023-03-25T10:02:41.608Z,57.60
2023-03-25T10:05:27.816Z,54.23
2023-03-25T10:08:19.883Z,54.30
2023-03-25T10:10:48.857Z,54.51
2023-03-25T10:13:35.162Z,51.38
2023-03-25T10:16:43.853Z,52.39
2023-03-25T10:19:25.753Z,50.58
2023-03-25T10:22:01.092Z,51.32
2023-03-25T10:24:46.522Z,51.84
2023-03-25T10:27:19.216Z,49.24
2023-03-25T10:29:53.848Z,50.01
2023-03-25T10:32:39.147Z,52.26
2023-03-25T10:35:09.433Z,48.74
2023-03-25T10:37:42.108Z,49.02
2023-03-25T10:40:24.182Z,49.70
2023-03-25T10:43:19.003Z,45.71
2023-03-25T10:45:46.405Z,46.59
2023-03-25T10:48:22.610Z,46.10
2023-03-25T10:50:50.669Z,48.59
2023-03-25T10:53:36.829Z,47.69
2023-03-25T10:56:17.755Z,45.29
2023-03-25T10:58:47.448Z,44.13
2023-03-25T11:01:19.743Z,39.70
2023-03-25T11:03:51.710Z,36.57
2023-03-25T11:06:29.668Z,36.05
2023-03-25T11:08:58.826Z,36.03
2023-03-25T11:11:51.652Z,34.78
2023-03-25T11:14:24.048Z,33.84
2023-03-25T11:17:05.792Z,32.51
2023-03-25T11:19:47.167Z,32.33
2023-03-25T11:22:18.963Z,32.80
2023-03-25T11:24:49.446Z,31.68
2023-03-25T11:27:24.971Z,31.54
2023-03-25T11:29:54.263Z,31.27
2023-03-25T11:33:13.292Z,30.75
2023-03-25T11:36:22.038Z,31.05
2023-03-25T11:38:54.140Z,30.67
2023-03-25T11:41:21.402Z,29.38
2023-03-25T11:43:49.650Z,29.49
2023-03-25T11:46:18.496Z,28.90
2023-03-25T11:48:46.879Z,30.03
2023-03-25T11:51:15.621Z,29.38
2023-03-25T11:53:51.312Z,28.04
2023-03-25T11:56:22.447Z,29.16
2023-03-25T11:58:49.641Z,27.32
2023-03-25T12:01:26.002Z,26.52
2023-03-25T12:03:53.843Z,28.61
2023-03-25T12:06:31.145Z,27.40
2023-03-25T12:09:00.848Z,25.45
2023-03-25T12:11:46.887Z,24.82
2023-03-25T12:14:19.984Z,24.88
2023-03-25T12:17:28.389Z,24.85
2023-03-25T12:20:30.699Z,23.15
2023-03-25T12:23:04.689Z,22.23
2023-03-25T12:25:53.648Z,21.74
2023-03-25T12:28:38.834Z,21.55
2023-03-25T12:31:12.676Z,21.01
2023-03-25T12:33:52.674Z,20.96
2023-03-25T12:36:40.368Z,20.23
2023-03-25T12:39:42.227Z,20.83
2023-03-25T12:42:25.305Z,20.71
2023-03-25T12:45:16.041Z,20.58
2023-03-25T12:47:44.027Z,19.71
2023-03-25T12:50:33.757Z,20.26
2023-03-25T12:53:02.309Z,19.72
2023-03-25T12:55:51.748Z,19.41
2023-03-25T12:58:59.973Z,20.11
2023-03-25T13:01:49.266Z,20.11
2023-03-25T13:04:20.820Z,20.24
2023-03-25T13:06:53.704Z,19.91
2023-03-25T13:09:29.024Z,20.03
2023-03-25T13:11:59.203Z,21.11
2023-03-25T13:14:31.459Z,21.09
2023-03-25T13:17:00.323Z,19.85
2023-03-25T13:19:28.589Z,19.38
2023-03-25T13:21:57.638Z,19.49
2023-03-25T13:24:35.339Z,19.45
2023-03-25T13:27:02.420Z,18.56
2023-03-25T13:29:37.905Z,17.90
2023-03-25T13:32:10.486Z,19.01
2023-03-25T13:34:58.045Z,20.00
2023-03-25T13:37:33.479Z,19.51
2023-03-25T13:40:19.303Z,20.69
2023-03-25T13:42:58.537Z,19.69
2023-03-25T13:45:26.509Z,17.20
2023-03-25T13:48:14.678Z,17.42
2023-03-25T13:50:41.378Z,17.30
2023-03-25T13:53:15.899Z,17.49
2023-03-25T13:56:12.137Z,16.38
2023-03-25T13:58:54.039Z,17.04
2023-03-25T14:01:39.376Z,16.49
2023-03-25T14:04:21.343Z,15.48
2023-03-25T14:07:06.568Z,16.12
2023-03-25T14:10:14.680Z,16.45
2023-03-25T14:12:54.003Z,16.86
2023-03-25T14:15:26.563Z,16.70
2023-03-25T14:17:54.504Z,16.92
2023-03-25T14:20:32.691Z,17.11
2023-03-25T14:23:02.679Z,17.16
2023-03-25T14:25:38.137Z,17.40
2023-03-25T14:28:07.918Z,16.99
2023-03-25T14:30:35.909Z,17.38
2023-03-25T14:33:04.336Z,17.82
2023-03-25T14:35:34.414Z,18.22
2023-03-25T14:38:11.409Z,18.22
2023-03-25T14:41:01.346Z,18.87
2023-03-25T14:44:02.147Z,19.01
2023-03-25T14:46:32.581Z,18.82
2023-03-25T14:49:05.927Z,18.53
2023-03-25T14:51:42.618Z,18.91
2023-03-25T14:54:18.440Z,18.98
2023-03-25T14:56:48.523Z,18.49
2023-03-25T14:59:19.605Z,18.19
2023-03-25T15:01:49.618Z,18.07
2023-03-25T15:04:22.646Z,17.58
2023-03-25T15:06:49.456Z,17.42
2023-03-25T15:09:17.849Z,17.89
2023-03-25T15:11:51.877Z,18.20
2023-03-25T15:14:24.987Z,17.29
2023-03-25T15:16:56.608Z,17.22
2023-03-25T15:19:23.778Z,16.75
2023-03-25T15:22:06.098Z,17.05
2023-03-25T15:24:36.717Z,17.41
2023-03-25T15:27:20.240Z,17.06
2023-03-25T15:30:03.247Z,17.55
2023-03-25T15:32:58.803Z,18.60
2023-03-25T15:35:45.236Z,18.32
2023-03-25T15:39:00.563Z,17.95
2023-03-25T15:41:36.418Z,17.29
2023-03-25T15:44:20.991Z,18.65
2023-03-25T15:47:06.811Z,17.76
2023-03-25T15:49:52.636Z,17.73
2023-03-25T15:52:22.525Z,16.89
2023-03-25T15:54:56.380Z,16.79
2023-03-25T15:57:25.637Z,16.43
2023-03-25T16:00:14.373Z,16.21
2023-03-25T16:02:43.774Z,16.11
2023-03-25T16:05:11.333Z,16.00
2023-03-25T16:07:38.722Z,16.36
2023-03-25T16:10:14.916Z,16.03
2023-03-25T16:12:42.986Z,16.10
2023-03-25T16:15:14.303Z,15.77
2023-03-25T16:17:41.356Z,16.60
2023-03-25T16:20:13.976Z,16.86
2023-03-25T16:22:43.283Z,17.63
2023-03-25T16:25:14.705Z,18.34
2023-03-25T16:27:48.997Z,18.36
2023-03-25T16:30:20.318Z,18.73
2023-03-25T16:32:48.064Z,19.64
2023-03-25T16:35:25.005Z,19.21
2023-03-25T16:37:56.174Z,19.25
2023-03-25T16:40:29.202Z,19.60
2023-03-25T16:42:58.328Z,20.22
2023-03-25T16:45:26.069Z,20.40
2023-03-25T16:47:54.324Z,20.45
2023-03-25T16:50:21.544Z,20.50
2023-03-25T16:52:50.441Z,20.58
2023-03-25T16:55:28.788Z,21.17
2023-03-25T16:57:55.451Z,21.25
2023-03-25T17:00:25.542Z,21.78
2023-03-25T17:02:54.182Z,21.85
2023-03-25T17:05:26.257Z,21.81
2023-03-25T17:08:11.505Z,21.97
2023-03-25T17:10:56.454Z,21.83
2023-03-25T17:13:52.285Z,22.07
2023-03-25T17:16:20.556Z,22.54
2023-03-25T17:18:54.932Z,23.27
2023-03-25T17:21:26.647Z,23.52
2023-03-25T17:23:55.751Z,23.73
2023-03-25T17:26:24.742Z,24.11
2023-03-25T17:28:51.900Z,23.95
2023-03-25T17:31:30.632Z,24.24
2023-03-25T17:34:02.289Z,24.49
2023-03-25T17:36:37.402Z,24.49
2023-03-25T17:39:06.606Z,24.80
2023-03-25T17:41:38.578Z,25.22
2023-03-25T17:44:05.716Z,25.18
2023-03-25T17:46:33.240Z,25.87
2023-03-25T17:49:01.149Z,27.01
2023-03-25T17:51:30.351Z,26.73
2023-03-25T17:53:57.487Z,27.18
2023-03-25T17:56:28.409Z,26.97
2023-03-25T17:59:23.104Z,26.78
2023-03-25T18:01:51.075Z,26.84
2023-03-25T18:04:20.003Z,27.14
2023-03-25T18:06:47.531Z,26.74
2023-03-25T18:09:23.629Z,26.86
2023-03-25T18:12:14.549Z,26.84
2023-03-25T18:14:44.023Z,26.77
2023-03-25T18:17:15.097Z,27.05
2023-03-25T18:19:42.726Z,27.29
2023-03-25T18:22:19.833Z,27.84
2023-03-25T18:24:48.435Z,27.97
2023-03-25T18:27:16.289Z,27.51
2023-03-25T18:29:48.303Z,28.81
2023-03-25T18:32:15.859Z,30.08
2023-03-25T18:34:43.382Z,29.88
2023-03-25T18:37:10.902Z,29.72
2023-03-25T18:39:39.017Z,32.06
2023-03-25T18:42:07.560Z,41.14
2023-03-25T18:44:35.316Z,47.09
2023-03-25T18:47:03.214Z,50.96
2023-03-25T18:49:31.342Z,53.65
2023-03-25T18:51:59.371Z,56.50
2023-03-25T18:54:27.213Z,59.69
2023-03-25T18:56:56.912Z,61.89
2023-03-25T18:59:25.362Z,63.33
2023-03-25T19:01:53.321Z,63.91
2023-03-25T19:04:21.555Z,64.38
2023-03-25T19:06:49.641Z,64.83
2023-03-25T19:09:22.864Z,65.57
2023-03-25T19:11:50.732Z,65.91
2023-03-25T19:14:18.251Z,66.77
2023-03-25T19:16:57.174Z,67.43
2023-03-25T19:19:29.227Z,67.50
2023-03-25T19:21:58.964Z,67.23
2023-03-25T19:24:26.937Z,67.98
2023-03-25T19:26:54.860Z,67.47
2023-03-25T19:29:22.877Z,67.24
2023-03-25T19:31:50.836Z,66.88
2023-03-25T19:34:22.092Z,66.56
2023-03-25T19:36:51.332Z,66.15
2023-03-25T19:39:26.236Z,66.18
2023-03-25T19:41:56.955Z,65.67
2023-03-25T19:44:25.580Z,65.70
2023-03-25T19:46:54.064Z,65.34
2023-03-25T19:49:32.884Z,65.53
2023-03-25T19:52:07.665Z,65.16
2023-03-25T19:54:35.686Z,64.77
2023-03-25T19:57:03.485Z,64.44
2023-03-25T19:59:32.219Z,64.89
2023-03-25T20:02:00.266Z,65.46
2023-03-25T20:04:28.638Z,65.58
2023-03-25T20:06:57.328Z,66.03
2023-03-25T20:09:24.902Z,66.83
2023-03-25T20:11:52.333Z,67.32
2023-03-25T20:14:20.568Z,67.84
2023-03-25T20:16:48.441Z,68.28
2023-03-25T20:19:17.857Z,68.44
2023-03-25T20:21:46.377Z,68.40
2023-03-25T20:24:14.916Z,67.97
2023-03-25T20:26:45.056Z,68.42
2023-03-25T20:29:13.266Z,68.38
2023-03-25T20:31:41.431Z,68.53
2023-03-25T20:34:09.727Z,68.87
2023-03-25T20:36:37.424Z,69.42
2023-03-25T20:39:05.915Z,69.67
2023-03-25T20:41:34.157Z,69.42
2023-03-25T20:44:03.181Z,69.88
2023-03-25T20:46:31.623Z,69.79
2023-03-25T20:49:03.438Z,69.56
2023-03-25T20:51:31.187Z,70.06
2023-03-25T20:53:59.386Z,70.09
2023-03-25T20:56:27.527Z,70.40
2023-03-25T20:58:55.867Z,70.63
2023-03-25T21:01:23.622Z,70.59
2023-03-25T21:03:54.376Z,70.37
2023-03-25T21:06:25.517Z,70.86
2023-03-25T21:08:55.960Z,70.71
2023-03-25T21:11:23.452Z,71.51
2023-03-25T21:13:51.577Z,71.63
2023-03-25T21:16:19.678Z,72.22
2023-03-25T21:18:49.465Z,72.39
2023-03-25T21:21:19.614Z,72.71
2023-03-25T21:23:48.106Z,72.67
2023-03-25T21:26:17.558Z,72.31
2023-03-25T21:28:45.267Z,72.52
2023-03-25T21:31:20.736Z,72.69
2023-03-25T21:33:50.804Z,73.03
2023-03-25T21:36:22.352Z,72.85
2023-03-25T21:38:50.756Z,72.73
2023-03-25T21:41:18.869Z,73.17
2023-03-25T21:43:47.883Z,72.50
2023-03-25T21:46:15.634Z,72.78
2023-03-25T21:48:51.556Z,72.63
2023-03-25T21:51:20.426Z,72.55
2023-03-25T21:53:47.655Z,72.41
2023-03-25T21:56:18.789Z,72.38
2023-03-25T21:58:45.776Z,72.69
2023-03-25T22:01:14.873Z,71.85
2023-03-25T22:03:45.388Z,71.91
2023-03-25T22:06:20.445Z,71.58
2023-03-25T22:08:48.688Z,72.07
2023-03-25T22:11:26.329Z,71.93
2023-03-25T22:14:16.470Z,71.78
2023-03-25T22:17:14.718Z,72.15
2023-03-25T22:19:42.642Z,72.04
2023-03-25T22:22:11.278Z,72.03
2023-03-25T22:24:39.178Z,72.05
2023-03-25T22:27:07.657Z,71.27
2023-03-25T22:29:35.895Z,71.56
2023-03-25T22:32:07.292Z,72.21
2023-03-25T22:34:35.092Z,72.09
2023-03-25T22:37:13.116Z,72.53
2023-03-25T22:39:41.019Z,72.96
2023-03-25T22:42:09.215Z,72.62
2023-03-25T22:44:36.868Z,72.86
2023-03-25T22:47:05.238Z,73.45
2023-03-25T22:49:32.950Z,73.48
2023-03-25T22:52:01.413Z,73.79
2023-03-25T22:54:29.248Z,73.72
2023-03-25T22:56:57.419Z,74.12
2023-03-25T22:59:25.047Z,73.98
2023-03-25T23:01:53.175Z,73.53
2023-03-25T23:04:20.737Z,73.33
2023-03-25T23:07:00.616Z,73.48
2023-03-25T23:09:47.735Z,73.28
2023-03-25T23:12:17.096Z,73.25
2023-03-25T23:14:51.327Z,72.91
2023-03-25T23:17:18.545Z,73.53
2023-03-25T23:19:47.113Z,73.73
2023-03-25T23:22:16.736Z,73.71
2023-03-25T23:24:45.028Z,73.93
2023-03-25T23:27:12.882Z,73.74
2023-03-25T23:29:41.666Z,73.69
2023-03-25T23:32:10.902Z,73.87
2023-03-25T23:34:39.128Z,74.06
2023-03-25T23:37:07.686Z,73.99
2023-03-25T23:39:35.824Z,73.64
2023-03-25T23:42:04.265Z,73.18
2023-03-25T23:44:32.316Z,73.62
2023-03-25T23:47:00.813Z,73.61
2023-03-25T23:49:33.271Z,72.93
2023-03-25T23:52:01.423Z,73.45
2023-03-25T23:54:30.003Z,73.38
2023-03-25T23:56:58.853Z,73.26
2023-03-25T23:59:26.917Z,73.10
